sensor_id;sensor_type;location;lat;lon;timestamp;P1;durP1;ratioP1;P2;durP2;ratioP2
61741;SDS011;47650;49.848;9.620;2022-08-01T00:01:57;3.55;;;3.20;;
61741;SDS011;47650;49.848;9.620;2022-08-01T00:04:24;5.65;;;3.42;;
61741;SDS011;47650;49.848;9.620;2022-08-01T00:06:49;4.03;;;3.40;;
61741;SDS011;47650;49.848;9.620;2022-08-01T00:09:14;3.78;;;3.33;;
61741;SDS011;47650;49.848;9.620;2022-08-01T00:11:41;6.05;;;3.13;;
61741;SDS011;47650;49.848;9.620;2022-08-01T00:14:07;4.72;;;3.20;;
61741;SDS011;47650;49.848;9.620;2022-08-01T00:16:34;3.70;;;2.63;;
61741;SDS011;47650;49.848;9.620;2022-08-01T00:18:59;4.45;;;3.13;;
61741;SDS011;47650;49.848;9.620;2022-08-01T00:21:24;3.65;;;3.30;;
61741;SDS011;47650;49.848;9.620;2022-08-01T00:23:51;3.47;;;3.17;;
61741;SDS011;47650;49.848;9.620;2022-08-01T00:26:16;8.05;;;3.22;;
61741;SDS011;47650;49.848;9.620;2022-08-01T00:28:42;4.88;;;3.00;;
61741;SDS011;47650;49.848;9.620;2022-08-01T00:31:07;3.30;;;2.70;;
61741;SDS011;47650;49.848;9.620;2022-08-01T00:33:32;4.43;;;3.22;;
61741;SDS011;47650;49.848;9.620;2022-08-01T00:36:00;3.55;;;3.25;;
61741;SDS011;47650;49.848;9.620;2022-08-01T00:38:25;3.78;;;3.15;;
61741;SDS011;47650;49.848;9.620;2022-08-01T00:40:50;5.00;;;3.17;;
61741;SDS011;47650;49.848;9.620;2022-08-01T00:43:16;4.55;;;3.35;;
61741;SDS011;47650;49.848;9.620;2022-08-01T00:45:42;3.58;;;3.25;;
61741;SDS011;47650;49.848;9.620;2022-08-01T00:48:07;3.65;;;3.10;;
61741;SDS011;47650;49.848;9.620;2022-08-01T00:50:33;3.65;;;3.05;;
61741;SDS011;47650;49.848;9.620;2022-08-01T00:53:00;3.38;;;3.08;;
61741;SDS011;47650;49.848;9.620;2022-08-01T00:55:28;3.78;;;3.20;;
61741;SDS011;47650;49.848;9.620;2022-08-01T00:57:54;6.15;;;3.00;;
61741;SDS011;47650;49.848;9.620;2022-08-01T01:00:20;5.43;;;3.35;;
61741;SDS011;47650;49.848;9.620;2022-08-01T01:02:46;4.35;;;3.58;;
61741;SDS011;47650;49.848;9.620;2022-08-01T01:05:12;4.97;;;3.40;;
61741;SDS011;47650;49.848;9.620;2022-08-01T01:07:45;6.30;;;4.07;;
61741;SDS011;47650;49.848;9.620;2022-08-01T01:10:54;4.65;;;3.40;;
61741;SDS011;47650;49.848;9.620;2022-08-01T01:13:23;4.47;;;4.00;;
61741;SDS011;47650;49.848;9.620;2022-08-01T01:16:02;4.65;;;3.95;;
61741;SDS011;47650;49.848;9.620;2022-08-01T01:18:34;4.50;;;4.00;;
61741;SDS011;47650;49.848;9.620;2022-08-01T01:21:09;4.20;;;3.80;;
61741;SDS011;47650;49.848;9.620;2022-08-01T01:26:45;4.32;;;3.40;;
61741;SDS011;47650;49.848;9.620;2022-08-01T01:29:28;4.93;;;3.83;;
61741;SDS011;47650;49.848;9.620;2022-08-01T01:34:35;4.25;;;3.60;;
61741;SDS011;47650;49.848;9.620;2022-08-01T01:37:04;4.10;;;3.50;;
61741;SDS011;47650;49.848;9.620;2022-08-01T01:39:33;6.90;;;3.80;;
61741;SDS011;47650;49.848;9.620;2022-08-01T01:42:04;5.47;;;4.13;;
61741;SDS011;47650;49.848;9.620;2022-08-01T01:44:32;4.47;;;4.07;;
61741;SDS011;47650;49.848;9.620;2022-08-01T01:47:00;4.10;;;3.70;;
61741;SDS011;47650;49.848;9.620;2022-08-01T01:49:26;3.83;;;3.53;;
61741;SDS011;47650;49.848;9.620;2022-08-01T01:51:54;7.10;;;3.90;;
61741;SDS011;47650;49.848;9.620;2022-08-01T01:54:22;5.05;;;4.20;;
61741;SDS011;47650;49.848;9.620;2022-08-01T01:56:52;4.47;;;4.00;;
61741;SDS011;47650;49.848;9.620;2022-08-01T01:59:25;5.05;;;3.45;;
61741;SDS011;47650;49.848;9.620;2022-08-01T02:01:55;4.38;;;3.92;;
61741;SDS011;47650;49.848;9.620;2022-08-01T02:04:23;4.85;;;3.80;;
61741;SDS011;47650;49.848;9.620;2022-08-01T02:06:50;5.72;;;3.90;;
61741;SDS011;47650;49.848;9.620;2022-08-01T02:09:18;5.22;;;3.90;;
61741;SDS011;47650;49.848;9.620;2022-08-01T02:11:46;5.15;;;3.70;;
61741;SDS011;47650;49.848;9.620;2022-08-01T02:14:13;6.50;;;4.05;;
61741;SDS011;47650;49.848;9.620;2022-08-01T02:16:41;6.38;;;3.78;;
61741;SDS011;47650;49.848;9.620;2022-08-01T02:19:09;5.45;;;4.20;;
61741;SDS011;47650;49.848;9.620;2022-08-01T02:26:53;4.15;;;3.75;;
61741;SDS011;47650;49.848;9.620;2022-08-01T02:29:26;4.00;;;3.60;;
61741;SDS011;47650;49.848;9.620;2022-08-01T02:31:55;4.10;;;3.72;;
61741;SDS011;47650;49.848;9.620;2022-08-01T02:34:22;5.25;;;3.50;;
61741;SDS011;47650;49.848;9.620;2022-08-01T02:36:50;4.07;;;3.35;;
61741;SDS011;47650;49.848;9.620;2022-08-01T02:39:17;6.97;;;3.38;;
61741;SDS011;47650;49.848;9.620;2022-08-01T02:41:47;4.30;;;3.88;;
61741;SDS011;47650;49.848;9.620;2022-08-01T02:44:16;5.15;;;3.65;;
61741;SDS011;47650;49.848;9.620;2022-08-01T02:46:50;3.53;;;3.22;;
61741;SDS011;47650;49.848;9.620;2022-08-01T02:49:18;4.57;;;3.20;;
61741;SDS011;47650;49.848;9.620;2022-08-01T02:51:46;3.92;;;3.30;;
61741;SDS011;47650;49.848;9.620;2022-08-01T02:54:14;4.75;;;3.92;;
61741;SDS011;47650;49.848;9.620;2022-08-01T02:56:44;6.35;;;3.70;;
61741;SDS011;47650;49.848;9.620;2022-08-01T02:59:12;4.75;;;3.42;;
61741;SDS011;47650;49.848;9.620;2022-08-01T03:01:40;4.70;;;3.63;;
61741;SDS011;47650;49.848;9.620;2022-08-01T03:04:09;5.47;;;4.00;;
61741;SDS011;47650;49.848;9.620;2022-08-01T03:06:39;5.03;;;3.35;;
61741;SDS011;47650;49.848;9.620;2022-08-01T03:09:06;5.05;;;3.67;;
61741;SDS011;47650;49.848;9.620;2022-08-01T03:11:33;4.75;;;3.80;;
61741;SDS011;47650;49.848;9.620;2022-08-01T03:14:04;4.25;;;3.47;;
61741;SDS011;47650;49.848;9.620;2022-08-01T03:16:33;4.57;;;3.53;;
61741;SDS011;47650;49.848;9.620;2022-08-01T03:19:02;5.40;;;4.57;;
61741;SDS011;47650;49.848;9.620;2022-08-01T03:21:31;4.85;;;3.95;;
61741;SDS011;47650;49.848;9.620;2022-08-01T03:23:57;5.05;;;3.80;;
61741;SDS011;47650;49.848;9.620;2022-08-01T03:26:28;7.43;;;6.70;;
61741;SDS011;47650;49.848;9.620;2022-08-01T03:28:55;5.93;;;4.22;;
61741;SDS011;47650;49.848;9.620;2022-08-01T03:31:24;4.90;;;4.40;;
61741;SDS011;47650;49.848;9.620;2022-08-01T03:33:58;4.18;;;3.70;;
61741;SDS011;47650;49.848;9.620;2022-08-01T03:36:25;4.38;;;3.75;;
61741;SDS011;47650;49.848;9.620;2022-08-01T03:38:55;5.60;;;3.88;;
61741;SDS011;47650;49.848;9.620;2022-08-01T03:41:23;4.45;;;3.97;;
61741;SDS011;47650;49.848;9.620;2022-08-01T03:44:13;5.57;;;4.70;;
61741;SDS011;47650;49.848;9.620;2022-08-01T03:46:53;5.20;;;4.80;;
61741;SDS011;47650;49.848;9.620;2022-08-01T03:49:24;6.47;;;4.32;;
61741;SDS011;47650;49.848;9.620;2022-08-01T03:51:54;5.10;;;4.60;;
61741;SDS011;47650;49.848;9.620;2022-08-01T03:54:21;6.20;;;5.20;;
61741;SDS011;47650;49.848;9.620;2022-08-01T03:56:49;6.53;;;4.38;;
61741;SDS011;47650;49.848;9.620;2022-08-01T03:59:16;6.28;;;5.15;;
61741;SDS011;47650;49.848;9.620;2022-08-01T04:01:43;5.63;;;5.13;;
61741;SDS011;47650;49.848;9.620;2022-08-01T04:04:09;5.60;;;4.95;;
61741;SDS011;47650;49.848;9.620;2022-08-01T04:06:38;4.93;;;4.53;;
61741;SDS011;47650;49.848;9.620;2022-08-01T04:09:04;5.63;;;4.10;;
61741;SDS011;47650;49.848;9.620;2022-08-01T04:11:34;3.83;;;3.53;;
61741;SDS011;47650;49.848;9.620;2022-08-01T04:14:02;4.25;;;3.85;;
61741;SDS011;47650;49.848;9.620;2022-08-01T04:16:28;7.32;;;6.55;;
61741;SDS011;47650;49.848;9.620;2022-08-01T04:18:55;7.78;;;6.10;;
61741;SDS011;47650;49.848;9.620;2022-08-01T04:21:23;5.15;;;4.60;;
61741;SDS011;47650;49.848;9.620;2022-08-01T04:23:52;4.72;;;3.90;;
61741;SDS011;47650;49.848;9.620;2022-08-01T04:26:20;5.20;;;4.15;;
61741;SDS011;47650;49.848;9.620;2022-08-01T04:28:48;5.20;;;3.42;;
61741;SDS011;47650;49.848;9.620;2022-08-01T04:31:22;4.57;;;3.70;;
61741;SDS011;47650;49.848;9.620;2022-08-01T04:33:53;4.10;;;3.45;;
61741;SDS011;47650;49.848;9.620;2022-08-01T04:36:21;4.13;;;3.67;;
61741;SDS011;47650;49.848;9.620;2022-08-01T04:38:50;5.18;;;3.20;;
61741;SDS011;47650;49.848;9.620;2022-08-01T04:41:20;5.72;;;3.25;;
61741;SDS011;47650;49.848;9.620;2022-08-01T04:43:48;4.00;;;3.58;;
61741;SDS011;47650;49.848;9.620;2022-08-01T04:46:20;4.05;;;3.50;;
61741;SDS011;47650;49.848;9.620;2022-08-01T04:48:46;3.75;;;3.33;;
61741;SDS011;47650;49.848;9.620;2022-08-01T04:51:13;6.38;;;3.83;;
61741;SDS011;47650;49.848;9.620;2022-08-01T04:53:44;4.90;;;3.67;;
61741;SDS011;47650;49.848;9.620;2022-08-01T04:56:12;3.83;;;3.45;;
61741;SDS011;47650;49.848;9.620;2022-08-01T04:58:39;3.47;;;3.17;;
61741;SDS011;47650;49.848;9.620;2022-08-01T05:01:06;6.20;;;3.38;;
61741;SDS011;47650;49.848;9.620;2022-08-01T05:03:32;4.80;;;3.58;;
61741;SDS011;47650;49.848;9.620;2022-08-01T05:05:57;7.07;;;4.03;;
61741;SDS011;47650;49.848;9.620;2022-08-01T05:08:23;7.47;;;3.33;;
61741;SDS011;47650;49.848;9.620;2022-08-01T05:10:49;4.72;;;3.67;;
61741;SDS011;47650;49.848;9.620;2022-08-01T05:13:14;5.40;;;3.70;;
61741;SDS011;47650;49.848;9.620;2022-08-01T05:15:42;6.45;;;3.92;;
61741;SDS011;47650;49.848;9.620;2022-08-01T05:18:07;5.53;;;3.67;;
61741;SDS011;47650;49.848;9.620;2022-08-01T05:20:35;14.43;;;4.75;;
61741;SDS011;47650;49.848;9.620;2022-08-01T05:23:04;4.85;;;3.65;;
61741;SDS011;47650;49.848;9.620;2022-08-01T05:25:30;6.43;;;3.95;;
61741;SDS011;47650;49.848;9.620;2022-08-01T05:27:55;7.18;;;4.32;;
61741;SDS011;47650;49.848;9.620;2022-08-01T05:30:22;9.18;;;4.20;;
61741;SDS011;47650;49.848;9.620;2022-08-01T05:32:48;9.27;;;4.45;;
61741;SDS011;47650;49.848;9.620;2022-08-01T05:35:13;7.07;;;6.32;;
61741;SDS011;47650;49.848;9.620;2022-08-01T05:37:39;6.53;;;5.93;;
61741;SDS011;47650;49.848;9.620;2022-08-01T05:40:04;6.05;;;5.18;;
61741;SDS011;47650;49.848;9.620;2022-08-01T05:42:30;4.90;;;4.32;;
61741;SDS011;47650;49.848;9.620;2022-08-01T05:44:56;6.32;;;4.03;;
61741;SDS011;47650;49.848;9.620;2022-08-01T05:47:22;6.28;;;3.30;;
61741;SDS011;47650;49.848;9.620;2022-08-01T05:49:47;5.30;;;2.50;;
61741;SDS011;47650;49.848;9.620;2022-08-01T05:52:13;4.82;;;2.90;;
61741;SDS011;47650;49.848;9.620;2022-08-01T05:54:40;4.97;;;2.60;;
61741;SDS011;47650;49.848;9.620;2022-08-01T05:57:06;4.05;;;2.67;;
61741;SDS011;47650;49.848;9.620;2022-08-01T05:59:32;5.90;;;3.20;;
61741;SDS011;47650;49.848;9.620;2022-08-01T06:01:57;6.28;;;2.63;;
61741;SDS011;47650;49.848;9.620;2022-08-01T06:04:22;2.95;;;2.40;;
61741;SDS011;47650;49.848;9.620;2022-08-01T06:06:48;3.55;;;2.10;;
61741;SDS011;47650;49.848;9.620;2022-08-01T06:09:14;4.47;;;2.20;;
61741;SDS011;47650;49.848;9.620;2022-08-01T06:11:40;2.78;;;2.08;;
61741;SDS011;47650;49.848;9.620;2022-08-01T06:14:07;2.72;;;2.10;;
61741;SDS011;47650;49.848;9.620;2022-08-01T06:16:32;3.35;;;2.20;;
61741;SDS011;47650;49.848;9.620;2022-08-01T06:18:57;3.53;;;2.13;;
61741;SDS011;47650;49.848;9.620;2022-08-01T06:21:23;3.78;;;1.80;;
61741;SDS011;47650;49.848;9.620;2022-08-01T06:23:49;3.05;;;1.58;;
61741;SDS011;47650;49.848;9.620;2022-08-01T06:26:17;4.22;;;2.10;;
61741;SDS011;47650;49.848;9.620;2022-08-01T06:28:46;3.65;;;2.00;;
61741;SDS011;47650;49.848;9.620;2022-08-01T06:31:11;4.53;;;1.90;;
61741;SDS011;47650;49.848;9.620;2022-08-01T06:33:39;2.75;;;2.20;;
61741;SDS011;47650;49.848;9.620;2022-08-01T06:36:05;2.83;;;2.25;;
61741;SDS011;47650;49.848;9.620;2022-08-01T06:38:30;3.92;;;2.40;;
61741;SDS011;47650;49.848;9.620;2022-08-01T06:40:55;2.67;;;2.03;;
61741;SDS011;47650;49.848;9.620;2022-08-01T06:43:21;2.63;;;2.20;;
61741;SDS011;47650;49.848;9.620;2022-08-01T06:45:46;3.97;;;2.28;;
61741;SDS011;47650;49.848;9.620;2022-08-01T06:48:12;3.17;;;2.10;;
61741;SDS011;47650;49.848;9.620;2022-08-01T06:50:37;4.25;;;2.13;;
61741;SDS011;47650;49.848;9.620;2022-08-01T06:53:02;8.05;;;2.50;;
61741;SDS011;47650;49.848;9.620;2022-08-01T06:55:33;5.43;;;2.47;;
61741;SDS011;47650;49.848;9.620;2022-08-01T06:57:58;5.93;;;2.90;;
61741;SDS011;47650;49.848;9.620;2022-08-01T07:00:24;8.20;;;2.60;;
61741;SDS011;47650;49.848;9.620;2022-08-01T07:02:52;3.45;;;2.63;;
61741;SDS011;47650;49.848;9.620;2022-08-01T07:05:21;5.00;;;3.00;;
61741;SDS011;47650;49.848;9.620;2022-08-01T07:07:48;2.83;;;2.63;;
61741;SDS011;47650;49.848;9.620;2022-08-01T07:10:20;3.03;;;2.83;;
61741;SDS011;47650;49.848;9.620;2022-08-01T07:12:45;4.05;;;2.63;;
61741;SDS011;47650;49.848;9.620;2022-08-01T07:15:10;4.18;;;2.45;;
61741;SDS011;47650;49.848;9.620;2022-08-01T07:17:39;3.90;;;2.60;;
61741;SDS011;47650;49.848;9.620;2022-08-01T07:20:06;4.40;;;2.80;;
61741;SDS011;47650;49.848;9.620;2022-08-01T07:22:33;2.70;;;2.50;;
61741;SDS011;47650;49.848;9.620;2022-08-01T07:24:58;5.57;;;2.53;;
61741;SDS011;47650;49.848;9.620;2022-08-01T07:27:29;4.45;;;2.30;;
61741;SDS011;47650;49.848;9.620;2022-08-01T07:29:56;4.43;;;2.15;;
61741;SDS011;47650;49.848;9.620;2022-08-01T07:32:21;3.72;;;2.30;;
61741;SDS011;47650;49.848;9.620;2022-08-01T07:34:47;2.78;;;2.30;;
61741;SDS011;47650;49.848;9.620;2022-08-01T07:37:13;3.10;;;2.50;;
61741;SDS011;47650;49.848;9.620;2022-08-01T07:39:40;2.70;;;2.50;;
61741;SDS011;47650;49.848;9.620;2022-08-01T07:42:07;3.25;;;2.50;;
61741;SDS011;47650;49.848;9.620;2022-08-01T07:44:35;2.75;;;2.35;;
61741;SDS011;47650;49.848;9.620;2022-08-01T07:47:01;2.55;;;2.33;;
61741;SDS011;47650;49.848;9.620;2022-08-01T07:49:27;2.40;;;2.00;;
61741;SDS011;47650;49.848;9.620;2022-08-01T07:51:58;3.28;;;2.30;;
61741;SDS011;47650;49.848;9.620;2022-08-01T07:54:24;3.08;;;2.20;;
61741;SDS011;47650;49.848;9.620;2022-08-01T07:56:50;2.63;;;2.15;;
61741;SDS011;47650;49.848;9.620;2022-08-01T07:59:16;3.67;;;1.88;;
61741;SDS011;47650;49.848;9.620;2022-08-01T08:01:47;3.25;;;1.88;;
61741;SDS011;47650;49.848;9.620;2022-08-01T08:04:12;2.20;;;1.90;;
61741;SDS011;47650;49.848;9.620;2022-08-01T08:06:38;4.53;;;2.10;;
61741;SDS011;47650;49.848;9.620;2022-08-01T08:09:03;3.80;;;2.00;;
61741;SDS011;47650;49.848;9.620;2022-08-01T08:11:30;5.20;;;2.00;;
61741;SDS011;47650;49.848;9.620;2022-08-01T08:13:55;3.30;;;1.90;;
61741;SDS011;47650;49.848;9.620;2022-08-01T08:16:21;2.38;;;1.83;;
61741;SDS011;47650;49.848;9.620;2022-08-01T08:18:46;4.13;;;2.00;;
61741;SDS011;47650;49.848;9.620;2022-08-01T08:21:11;3.70;;;1.70;;
61741;SDS011;47650;49.848;9.620;2022-08-01T08:23:42;2.78;;;1.80;;
61741;SDS011;47650;49.848;9.620;2022-08-01T08:26:26;3.40;;;1.55;;
61741;SDS011;47650;49.848;9.620;2022-08-01T08:28:52;4.25;;;1.60;;
61741;SDS011;47650;49.848;9.620;2022-08-01T08:31:17;2.58;;;1.70;;
61741;SDS011;47650;49.848;9.620;2022-08-01T08:33:45;2.22;;;1.67;;
61741;SDS011;47650;49.848;9.620;2022-08-01T08:36:10;4.07;;;2.00;;
61741;SDS011;47650;49.848;9.620;2022-08-01T08:38:37;2.75;;;1.70;;
61741;SDS011;47650;49.848;9.620;2022-08-01T08:41:03;1.73;;;1.63;;
61741;SDS011;47650;49.848;9.620;2022-08-01T08:43:28;3.05;;;1.75;;
61741;SDS011;47650;49.848;9.620;2022-08-01T08:45:54;4.30;;;2.22;;
61741;SDS011;47650;49.848;9.620;2022-08-01T08:48:20;3.08;;;1.70;;
61741;SDS011;47650;49.848;9.620;2022-08-01T08:50:47;2.58;;;1.70;;
61741;SDS011;47650;49.848;9.620;2022-08-01T08:53:13;3.17;;;2.78;;
61741;SDS011;47650;49.848;9.620;2022-08-01T08:55:41;5.25;;;2.90;;
61741;SDS011;47650;49.848;9.620;2022-08-01T08:58:14;2.40;;;1.80;;
61741;SDS011;47650;49.848;9.620;2022-08-01T09:00:45;2.70;;;2.50;;
61741;SDS011;47650;49.848;9.620;2022-08-01T09:03:18;3.38;;;3.10;;
61741;SDS011;47650;49.848;9.620;2022-08-01T09:05:43;3.47;;;3.10;;
61741;SDS011;47650;49.848;9.620;2022-08-01T09:08:09;2.42;;;2.30;;
61741;SDS011;47650;49.848;9.620;2022-08-01T09:10:35;3.25;;;3.05;;
61741;SDS011;47650;49.848;9.620;2022-08-01T09:15:40;3.00;;;2.67;;
61741;SDS011;47650;49.848;9.620;2022-08-01T09:23:45;3.45;;;2.78;;
61741;SDS011;47650;49.848;9.620;2022-08-01T09:26:16;3.40;;;3.20;;
61741;SDS011;47650;49.848;9.620;2022-08-01T09:28:46;3.30;;;3.10;;
61741;SDS011;47650;49.848;9.620;2022-08-01T09:31:16;2.50;;;2.40;;
61741;SDS011;47650;49.848;9.620;2022-08-01T09:34:00;1.88;;;1.77;;
61741;SDS011;47650;49.848;9.620;2022-08-01T09:36:47;2.28;;;1.50;;
61741;SDS011;47650;49.848;9.620;2022-08-01T09:39:16;1.63;;;1.52;;
61741;SDS011;47650;49.848;9.620;2022-08-01T09:41:43;1.92;;;1.65;;
61741;SDS011;47650;49.848;9.620;2022-08-01T09:44:11;3.67;;;1.90;;
61741;SDS011;47650;49.848;9.620;2022-08-01T09:46:43;2.28;;;2.10;;
61741;SDS011;47650;49.848;9.620;2022-08-01T09:49:14;2.05;;;1.85;;
61741;SDS011;47650;49.848;9.620;2022-08-01T09:51:39;4.60;;;4.30;;
61741;SDS011;47650;49.848;9.620;2022-08-01T09:54:05;2.10;;;1.85;;
61741;SDS011;47650;49.848;9.620;2022-08-01T09:56:38;2.20;;;2.00;;
61741;SDS011;47650;49.848;9.620;2022-08-01T09:59:07;1.58;;;1.48;;
61741;SDS011;47650;49.848;9.620;2022-08-01T10:01:44;17.80;;;6.80;;
61741;SDS011;47650;49.848;9.620;2022-08-01T10:04:12;4.78;;;4.40;;
61741;SDS011;47650;49.848;9.620;2022-08-01T10:06:40;5.32;;;5.03;;
61741;SDS011;47650;49.848;9.620;2022-08-01T10:09:10;3.95;;;3.72;;
61741;SDS011;47650;49.848;9.620;2022-08-01T10:11:37;2.40;;;2.28;;
61741;SDS011;47650;49.848;9.620;2022-08-01T10:14:07;4.93;;;4.63;;
61741;SDS011;47650;49.848;9.620;2022-08-01T10:16:34;7.80;;;7.30;;
61741;SDS011;47650;49.848;9.620;2022-08-01T10:19:05;3.92;;;3.63;;
61741;SDS011;47650;49.848;9.620;2022-08-01T10:21:32;2.13;;;2.03;;
61741;SDS011;47650;49.848;9.620;2022-08-01T10:24:01;3.60;;;3.40;;
61741;SDS011;47650;49.848;9.620;2022-08-01T10:26:29;3.20;;;3.00;;
61741;SDS011;47650;49.848;9.620;2022-08-01T10:28:57;1.40;;;1.30;;
61741;SDS011;47650;49.848;9.620;2022-08-01T10:31:25;3.65;;;3.45;;
61741;SDS011;47650;49.848;9.620;2022-08-01T10:33:52;3.00;;;2.80;;
61741;SDS011;47650;49.848;9.620;2022-08-01T10:36:21;5.45;;;5.10;;
61741;SDS011;47650;49.848;9.620;2022-08-01T10:38:48;4.97;;;4.57;;
61741;SDS011;47650;49.848;9.620;2022-08-01T10:41:14;4.05;;;3.78;;
61741;SDS011;47650;49.848;9.620;2022-08-01T10:43:40;1.60;;;1.50;;
61741;SDS011;47650;49.848;9.620;2022-08-01T10:46:06;1.83;;;1.73;;
61741;SDS011;47650;49.848;9.620;2022-08-01T10:48:47;8.40;;;7.90;;
61741;SDS011;47650;49.848;9.620;2022-08-01T10:51:20;5.97;;;1.65;;
61741;SDS011;47650;49.848;9.620;2022-08-01T10:53:52;2.35;;;1.70;;
61741;SDS011;47650;49.848;9.620;2022-08-01T10:56:19;3.17;;;2.97;;
61741;SDS011;47650;49.848;9.620;2022-08-01T10:58:46;1.70;;;1.60;;
61741;SDS011;47650;49.848;9.620;2022-08-01T11:01:16;4.97;;;4.68;;
61741;SDS011;47650;49.848;9.620;2022-08-01T11:04:01;2.05;;;1.42;;
61741;SDS011;47650;49.848;9.620;2022-08-01T11:06:41;3.47;;;3.28;;
61741;SDS011;47650;49.848;9.620;2022-08-01T11:11:59;4.32;;;4.03;;
61741;SDS011;47650;49.848;9.620;2022-08-01T11:17:38;4.53;;;3.47;;
61741;SDS011;47650;49.848;9.620;2022-08-01T11:20:10;3.10;;;2.90;;
61741;SDS011;47650;49.848;9.620;2022-08-01T11:30:43;3.80;;;3.50;;
61741;SDS011;47650;49.848;9.620;2022-08-01T11:33:09;2.90;;;2.70;;
61741;SDS011;47650;49.848;9.620;2022-08-01T11:35:35;3.40;;;3.20;;
61741;SDS011;47650;49.848;9.620;2022-08-01T11:41:09;2.78;;;2.60;;
61741;SDS011;47650;49.848;9.620;2022-08-01T11:43:37;3.20;;;3.00;;
61741;SDS011;47650;49.848;9.620;2022-08-01T11:46:20;2.97;;;2.78;;
61741;SDS011;47650;49.848;9.620;2022-08-01T11:49:23;2.85;;;2.40;;
61741;SDS011;47650;49.848;9.620;2022-08-01T11:54:34;3.53;;;2.47;;
61741;SDS011;47650;49.848;9.620;2022-08-01T11:57:00;1.88;;;1.77;;
61741;SDS011;47650;49.848;9.620;2022-08-01T11:59:28;4.80;;;1.90;;
61741;SDS011;47650;49.848;9.620;2022-08-01T12:01:53;2.88;;;2.30;;
61741;SDS011;47650;49.848;9.620;2022-08-01T12:04:19;2.97;;;1.80;;
61741;SDS011;47650;49.848;9.620;2022-08-01T12:06:44;2.55;;;2.35;;
61741;SDS011;47650;49.848;9.620;2022-08-01T12:09:20;10.13;;;3.15;;
61741;SDS011;47650;49.848;9.620;2022-08-01T12:11:56;2.67;;;2.10;;
61741;SDS011;47650;49.848;9.620;2022-08-01T12:14:22;2.35;;;2.22;;
61741;SDS011;47650;49.848;9.620;2022-08-01T12:16:50;2.63;;;2.42;;
61741;SDS011;47650;49.848;9.620;2022-08-01T12:19:21;2.47;;;2.28;;
61741;SDS011;47650;49.848;9.620;2022-08-01T12:24:37;2.60;;;2.40;;
61741;SDS011;47650;49.848;9.620;2022-08-01T12:27:05;2.85;;;2.10;;
61741;SDS011;47650;49.848;9.620;2022-08-01T12:29:35;2.10;;;2.00;;
61741;SDS011;47650;49.848;9.620;2022-08-01T12:32:04;4.43;;;2.33;;
61741;SDS011;47650;49.848;9.620;2022-08-01T12:34:29;2.42;;;2.22;;
61741;SDS011;47650;49.848;9.620;2022-08-01T12:36:58;2.50;;;2.30;;
61741;SDS011;47650;49.848;9.620;2022-08-01T12:39:31;3.15;;;2.15;;
61741;SDS011;47650;49.848;9.620;2022-08-01T12:41:58;2.20;;;2.00;;
61741;SDS011;47650;49.848;9.620;2022-08-01T12:44:23;3.33;;;2.00;;
61741;SDS011;47650;49.848;9.620;2022-08-01T12:46:49;3.10;;;2.30;;
61741;SDS011;47650;49.848;9.620;2022-08-01T12:49:15;2.70;;;2.50;;
61741;SDS011;47650;49.848;9.620;2022-08-01T12:51:41;2.85;;;2.13;;
61741;SDS011;47650;49.848;9.620;2022-08-01T12:54:07;2.15;;;2.03;;
61741;SDS011;47650;49.848;9.620;2022-08-01T12:56:35;3.13;;;2.40;;
61741;SDS011;47650;49.848;9.620;2022-08-01T12:59:00;2.72;;;2.30;;
61741;SDS011;47650;49.848;9.620;2022-08-01T13:01:29;2.40;;;2.30;;
61741;SDS011;47650;49.848;9.620;2022-08-01T13:04:00;2.75;;;1.95;;
61741;SDS011;47650;49.848;9.620;2022-08-01T13:06:29;2.42;;;2.22;;
61741;SDS011;47650;49.848;9.620;2022-08-01T13:08:55;5.22;;;2.45;;
61741;SDS011;47650;49.848;9.620;2022-08-01T13:11:31;2.50;;;2.30;;
61741;SDS011;47650;49.848;9.620;2022-08-01T13:13:56;2.40;;;1.88;;
61741;SDS011;47650;49.848;9.620;2022-08-01T13:16:23;2.38;;;2.28;;
61741;SDS011;47650;49.848;9.620;2022-08-01T13:18:51;2.15;;;2.00;;
61741;SDS011;47650;49.848;9.620;2022-08-01T13:21:19;2.50;;;2.25;;
61741;SDS011;47650;49.848;9.620;2022-08-01T13:26:37;2.30;;;2.13;;
61741;SDS011;47650;49.848;9.620;2022-08-01T13:29:05;2.60;;;2.35;;
61741;SDS011;47650;49.848;9.620;2022-08-01T13:31:34;3.45;;;2.10;;
61741;SDS011;47650;49.848;9.620;2022-08-01T13:34:00;2.10;;;1.90;;
61741;SDS011;47650;49.848;9.620;2022-08-01T13:36:25;2.47;;;2.28;;
61741;SDS011;47650;49.848;9.620;2022-08-01T13:38:56;2.95;;;2.00;;
61741;SDS011;47650;49.848;9.620;2022-08-01T13:41:40;3.58;;;2.10;;
61741;SDS011;47650;49.848;9.620;2022-08-01T13:44:06;2.25;;;2.15;;
61741;SDS011;47650;49.848;9.620;2022-08-01T13:46:33;3.55;;;2.10;;
61741;SDS011;47650;49.848;9.620;2022-08-01T13:49:01;2.25;;;2.15;;
61741;SDS011;47650;49.848;9.620;2022-08-01T13:51:27;3.42;;;1.98;;
61741;SDS011;47650;49.848;9.620;2022-08-01T13:53:58;2.10;;;2.00;;
61741;SDS011;47650;49.848;9.620;2022-08-01T13:56:24;2.13;;;2.03;;
61741;SDS011;47650;49.848;9.620;2022-08-01T13:58:49;3.15;;;1.80;;
61741;SDS011;47650;49.848;9.620;2022-08-01T14:01:15;1.90;;;1.80;;
61741;SDS011;47650;49.848;9.620;2022-08-01T14:03:42;1.80;;;1.70;;
61741;SDS011;47650;49.848;9.620;2022-08-01T14:06:08;2.30;;;2.20;;
61741;SDS011;47650;49.848;9.620;2022-08-01T14:08:33;2.97;;;1.80;;
61741;SDS011;47650;49.848;9.620;2022-08-01T14:10:58;3.00;;;2.00;;
61741;SDS011;47650;49.848;9.620;2022-08-01T14:13:24;4.00;;;2.10;;
61741;SDS011;47650;49.848;9.620;2022-08-01T14:15:50;2.25;;;2.15;;
61741;SDS011;47650;49.848;9.620;2022-08-01T14:18:16;2.25;;;2.00;;
61741;SDS011;47650;49.848;9.620;2022-08-01T14:20:42;2.35;;;1.92;;
61741;SDS011;47650;49.848;9.620;2022-08-01T14:23:09;3.10;;;2.05;;
61741;SDS011;47650;49.848;9.620;2022-08-01T14:25:35;3.20;;;2.20;;
61741;SDS011;47650;49.848;9.620;2022-08-01T14:28:04;2.08;;;1.90;;
61741;SDS011;47650;49.848;9.620;2022-08-01T14:30:31;1.85;;;1.75;;
61741;SDS011;47650;49.848;9.620;2022-08-01T14:32:58;2.10;;;1.77;;
61741;SDS011;47650;49.848;9.620;2022-08-01T14:35:24;2.33;;;1.70;;
61741;SDS011;47650;49.848;9.620;2022-08-01T14:37:50;6.45;;;2.00;;
61741;SDS011;47650;49.848;9.620;2022-08-01T14:40:17;2.30;;;2.10;;
61741;SDS011;47650;49.848;9.620;2022-08-01T14:42:42;2.22;;;2.00;;
61741;SDS011;47650;49.848;9.620;2022-08-01T14:45:09;2.15;;;2.05;;
61741;SDS011;47650;49.848;9.620;2022-08-01T14:47:36;2.40;;;2.17;;
61741;SDS011;47650;49.848;9.620;2022-08-01T14:50:06;3.38;;;2.25;;
61741;SDS011;47650;49.848;9.620;2022-08-01T14:52:34;2.67;;;2.15;;
61741;SDS011;47650;49.848;9.620;2022-08-01T14:55:00;2.13;;;1.90;;
61741;SDS011;47650;49.848;9.620;2022-08-01T14:57:25;2.33;;;2.10;;
61741;SDS011;47650;49.848;9.620;2022-08-01T14:59:51;2.75;;;1.90;;
61741;SDS011;47650;49.848;9.620;2022-08-01T15:02:16;2.33;;;2.10;;
61741;SDS011;47650;49.848;9.620;2022-08-01T15:04:45;2.30;;;2.10;;
61741;SDS011;47650;49.848;9.620;2022-08-01T15:07:11;4.85;;;1.80;;
61741;SDS011;47650;49.848;9.620;2022-08-01T15:09:36;3.13;;;2.03;;
61741;SDS011;47650;49.848;9.620;2022-08-01T15:12:02;2.88;;;1.83;;
61741;SDS011;47650;49.848;9.620;2022-08-01T15:14:27;2.13;;;1.92;;
61741;SDS011;47650;49.848;9.620;2022-08-01T15:17:12;2.58;;;1.88;;
61741;SDS011;47650;49.848;9.620;2022-08-01T15:19:37;2.13;;;1.95;;
61741;SDS011;47650;49.848;9.620;2022-08-01T15:22:03;2.38;;;1.90;;
61741;SDS011;47650;49.848;9.620;2022-08-01T15:24:28;2.60;;;2.20;;
61741;SDS011;47650;49.848;9.620;2022-08-01T15:26:54;2.10;;;1.90;;
61741;SDS011;47650;49.848;9.620;2022-08-01T15:29:19;2.40;;;2.20;;
61741;SDS011;47650;49.848;9.620;2022-08-01T15:31:44;2.30;;;2.10;;
61741;SDS011;47650;49.848;9.620;2022-08-01T15:34:11;2.10;;;1.90;;
61741;SDS011;47650;49.848;9.620;2022-08-01T15:36:36;2.00;;;1.90;;
61741;SDS011;47650;49.848;9.620;2022-08-01T15:39:02;2.10;;;1.90;;